sensor_id;sensor_type;location;lat;lon;timestamp;P1;durP1;ratioP1;P2;durP2;ratioP2
79399;SDS011;68856;45.586;10.264;2024-03-07T00:00:44;3.72;;;2.85;;
79399;SDS011;68856;45.586;10.264;2024-03-07T00:03:11;5.97;;;2.80;;
79399;SDS011;68856;45.586;10.264;2024-03-07T00:05:37;3.20;;;2.90;;
79399;SDS011;68856;45.586;10.264;2024-03-07T00:08:04;4.47;;;3.20;;
79399;SDS011;68856;45.586;10.264;2024-03-07T00:10:31;8.80;;;5.70;;
79399;SDS011;68856;45.586;10.264;2024-03-07T00:12:57;9.00;;;6.00;;
79399;SDS011;68856;45.586;10.264;2024-03-07T00:15:23;5.05;;;3.30;;
79399;SDS011;68856;45.586;10.264;2024-03-07T00:17:49;2.45;;;1.92;;
79399;SDS011;68856;45.586;10.264;2024-03-07T00:20:15;1.20;;;1.20;;
79399;SDS011;68856;45.586;10.264;2024-03-07T00:22:44;2.45;;;2.25;;
79399;SDS011;68856;45.586;10.264;2024-03-07T00:25:10;4.50;;;2.88;;
79399;SDS011;68856;45.586;10.264;2024-03-07T00:27:39;4.03;;;2.40;;
79399;SDS011;68856;45.586;10.264;2024-03-07T00:30:06;3.15;;;2.05;;
79399;SDS011;68856;45.586;10.264;2024-03-07T00:32:33;2.28;;;1.40;;
79399;SDS011;68856;45.586;10.264;2024-03-07T00:35:04;5.03;;;1.60;;
79399;SDS011;68856;45.586;10.264;2024-03-07T00:37:30;1.20;;;1.10;;
79399;SDS011;68856;45.586;10.264;2024-03-07T00:39:57;1.75;;;1.10;;
79399;SDS011;68856;45.586;10.264;2024-03-07T00:42:23;2.38;;;1.20;;
79399;SDS011;68856;45.586;10.264;2024-03-07T00:44:49;2.05;;;1.15;;
79399;SDS011;68856;45.586;10.264;2024-03-07T00:47:15;3.40;;;1.60;;
79399;SDS011;68856;45.586;10.264;2024-03-07T00:49:43;2.08;;;1.30;;
79399;SDS011;68856;45.586;10.264;2024-03-07T00:52:10;2.00;;;1.48;;
79399;SDS011;68856;45.586;10.264;2024-03-07T00:54:36;2.50;;;1.75;;
79399;SDS011;68856;45.586;10.264;2024-03-07T00:57:02;3.58;;;2.10;;
79399;SDS011;68856;45.586;10.264;2024-03-07T00:59:29;3.55;;;1.90;;
79399;SDS011;68856;45.586;10.264;2024-03-07T01:01:55;1.98;;;1.88;;
79399;SDS011;68856;45.586;10.264;2024-03-07T01:04:21;2.85;;;2.05;;
79399;SDS011;68856;45.586;10.264;2024-03-07T01:06:47;2.60;;;2.40;;
79399;SDS011;68856;45.586;10.264;2024-03-07T01:09:14;1.83;;;1.73;;
79399;SDS011;68856;45.586;10.264;2024-03-07T01:11:44;3.92;;;2.40;;
79399;SDS011;68856;45.586;10.264;2024-03-07T01:14:11;2.97;;;2.35;;
79399;SDS011;68856;45.586;10.264;2024-03-07T01:16:37;2.53;;;2.08;;
79399;SDS011;68856;45.586;10.264;2024-03-07T01:19:03;3.20;;;2.10;;
79399;SDS011;68856;45.586;10.264;2024-03-07T01:21:32;3.95;;;3.00;;
79399;SDS011;68856;45.586;10.264;2024-03-07T01:23:59;5.65;;;3.85;;
79399;SDS011;68856;45.586;10.264;2024-03-07T01:26:26;4.72;;;3.75;;
79399;SDS011;68856;45.586;10.264;2024-03-07T01:28:52;3.30;;;2.83;;
79399;SDS011;68856;45.586;10.264;2024-03-07T01:31:19;2.92;;;2.40;;
79399;SDS011;68856;45.586;10.264;2024-03-07T01:33:45;5.57;;;2.60;;
79399;SDS011;68856;45.586;10.264;2024-03-07T01:36:12;2.00;;;1.83;;
79399;SDS011;68856;45.586;10.264;2024-03-07T01:38:38;3.15;;;1.90;;
79399;SDS011;68856;45.586;10.264;2024-03-07T01:41:04;2.53;;;1.88;;
79399;SDS011;68856;45.586;10.264;2024-03-07T01:43:30;3.47;;;2.08;;
79399;SDS011;68856;45.586;10.264;2024-03-07T01:45:56;3.05;;;1.67;;
79399;SDS011;68856;45.586;10.264;2024-03-07T01:48:28;3.78;;;1.95;;
79399;SDS011;68856;45.586;10.264;2024-03-07T01:50:55;4.38;;;1.88;;
79399;SDS011;68856;45.586;10.264;2024-03-07T01:53:22;3.25;;;1.77;;
79399;SDS011;68856;45.586;10.264;2024-03-07T01:55:48;2.90;;;1.80;;
79399;SDS011;68856;45.586;10.264;2024-03-07T01:58:16;2.08;;;1.85;;
79399;SDS011;68856;45.586;10.264;2024-03-07T02:00:44;2.10;;;1.95;;
79399;SDS011;68856;45.586;10.264;2024-03-07T02:03:10;4.10;;;1.90;;
79399;SDS011;68856;45.586;10.264;2024-03-07T02:05:38;3.25;;;2.40;;
79399;SDS011;68856;45.586;10.264;2024-03-07T02:08:04;3.47;;;2.13;;
79399;SDS011;68856;45.586;10.264;2024-03-07T02:10:31;4.28;;;2.20;;
79399;SDS011;68856;45.586;10.264;2024-03-07T02:12:57;2.00;;;1.90;;
79399;SDS011;68856;45.586;10.264;2024-03-07T02:15:23;2.13;;;1.77;;
79399;SDS011;68856;45.586;10.264;2024-03-07T02:17:49;3.15;;;2.10;;
79399;SDS011;68856;45.586;10.264;2024-03-07T02:20:15;5.13;;;2.20;;
79399;SDS011;68856;45.586;10.264;2024-03-07T02:22:41;3.47;;;2.25;;
79399;SDS011;68856;45.586;10.264;2024-03-07T02:25:08;2.58;;;2.25;;
79399;SDS011;68856;45.586;10.264;2024-03-07T02:27:37;3.88;;;2.20;;
79399;SDS011;68856;45.586;10.264;2024-03-07T02:30:04;2.67;;;1.77;;
79399;SDS011;68856;45.586;10.264;2024-03-07T02:32:33;2.47;;;1.85;;
79399;SDS011;68856;45.586;10.264;2024-03-07T02:34:59;3.78;;;1.95;;
79399;SDS011;68856;45.586;10.264;2024-03-07T02:37:25;4.88;;;2.00;;
79399;SDS011;68856;45.586;10.264;2024-03-07T02:39:53;3.20;;;1.90;;
79399;SDS011;68856;45.586;10.264;2024-03-07T02:42:19;1.50;;;1.40;;
79399;SDS011;68856;45.586;10.264;2024-03-07T02:44:45;2.03;;;1.70;;
79399;SDS011;68856;45.586;10.264;2024-03-07T02:47:11;2.38;;;1.92;;
79399;SDS011;68856;45.586;10.264;2024-03-07T02:49:37;1.85;;;1.75;;
79399;SDS011;68856;45.586;10.264;2024-03-07T02:52:03;4.00;;;1.58;;
79399;SDS011;68856;45.586;10.264;2024-03-07T02:54:33;2.58;;;1.50;;
79399;SDS011;68856;45.586;10.264;2024-03-07T02:56:59;1.60;;;1.15;;
79399;SDS011;68856;45.586;10.264;2024-03-07T02:59:25;1.70;;;1.60;;
79399;SDS011;68856;45.586;10.264;2024-03-07T03:01:51;3.53;;;1.60;;
79399;SDS011;68856;45.586;10.264;2024-03-07T03:04:17;1.95;;;1.48;;
79399;SDS011;68856;45.586;10.264;2024-03-07T03:06:44;3.78;;;2.75;;
79399;SDS011;68856;45.586;10.264;2024-03-07T03:09:11;2.20;;;1.98;;
79399;SDS011;68856;45.586;10.264;2024-03-07T03:11:42;3.00;;;2.20;;
79399;SDS011;68856;45.586;10.264;2024-03-07T03:14:08;2.70;;;2.08;;
79399;SDS011;68856;45.586;10.264;2024-03-07T03:16:35;2.67;;;1.98;;
79399;SDS011;68856;45.586;10.264;2024-03-07T03:19:02;2.55;;;2.30;;
79399;SDS011;68856;45.586;10.264;2024-03-07T03:21:29;3.10;;;2.15;;
79399;SDS011;68856;45.586;10.264;2024-03-07T03:23:55;3.90;;;2.30;;
79399;SDS011;68856;45.586;10.264;2024-03-07T03:26:21;4.57;;;2.60;;
79399;SDS011;68856;45.586;10.264;2024-03-07T03:28:47;2.60;;;2.10;;
79399;SDS011;68856;45.586;10.264;2024-03-07T03:31:13;3.90;;;2.50;;
79399;SDS011;68856;45.586;10.264;2024-03-07T03:33:39;3.17;;;2.20;;
79399;SDS011;68856;45.586;10.264;2024-03-07T03:36:08;1.55;;;1.45;;
79399;SDS011;68856;45.586;10.264;2024-03-07T03:38:36;1.13;;;1.02;;
79399;SDS011;68856;45.586;10.264;2024-03-07T03:41:02;5.45;;;1.40;;
79399;SDS011;68856;45.586;10.264;2024-03-07T03:43:30;1.52;;;1.30;;
79399;SDS011;68856;45.586;10.264;2024-03-07T03:45:57;1.85;;;1.73;;
79399;SDS011;68856;45.586;10.264;2024-03-07T03:48:23;1.50;;;1.40;;
79399;SDS011;68856;45.586;10.264;2024-03-07T03:50:49;3.00;;;1.08;;
79399;SDS011;68856;45.586;10.264;2024-03-07T03:53:15;1.60;;;1.20;;
79399;SDS011;68856;45.586;10.264;2024-03-07T03:55:42;2.00;;;1.30;;
79399;SDS011;68856;45.586;10.264;2024-03-07T03:58:09;1.95;;;1.20;;
79399;SDS011;68856;45.586;10.264;2024-03-07T04:00:35;3.78;;;1.40;;
79399;SDS011;68856;45.586;10.264;2024-03-07T04:03:01;3.30;;;2.42;;
79399;SDS011;68856;45.586;10.264;2024-03-07T04:05:27;1.95;;;1.70;;
79399;SDS011;68856;45.586;10.264;2024-03-07T04:07:53;2.15;;;1.63;;
79399;SDS011;68856;45.586;10.264;2024-03-07T04:10:20;3.58;;;1.60;;
79399;SDS011;68856;45.586;10.264;2024-03-07T04:12:47;2.72;;;1.42;;
79399;SDS011;68856;45.586;10.264;2024-03-07T04:15:14;1.70;;;1.38;;
79399;SDS011;68856;45.586;10.264;2024-03-07T04:17:41;2.40;;;1.50;;
79399;SDS011;68856;45.586;10.264;2024-03-07T04:20:08;2.00;;;1.55;;
79399;SDS011;68856;45.586;10.264;2024-03-07T04:22:35;2.25;;;1.10;;
79399;SDS011;68856;45.586;10.264;2024-03-07T04:25:04;4.78;;;1.50;;
79399;SDS011;68856;45.586;10.264;2024-03-07T04:27:32;2.88;;;1.67;;
79399;SDS011;68856;45.586;10.264;2024-03-07T04:29:59;1.90;;;1.48;;
79399;SDS011;68856;45.586;10.264;2024-03-07T04:32:28;1.70;;;1.50;;
79399;SDS011;68856;45.586;10.264;2024-03-07T04:34:54;1.30;;;1.20;;
79399;SDS011;68856;45.586;10.264;2024-03-07T04:37:22;1.20;;;1.10;;
79399;SDS011;68856;45.586;10.264;2024-03-07T04:39:48;2.38;;;1.40;;
79399;SDS011;68856;45.586;10.264;2024-03-07T04:42:14;3.05;;;1.40;;
79399;SDS011;68856;45.586;10.264;2024-03-07T04:44:40;2.35;;;1.00;;
79399;SDS011;68856;45.586;10.264;2024-03-07T04:47:07;4.95;;;1.77;;
79399;SDS011;68856;45.586;10.264;2024-03-07T04:49:33;1.85;;;1.60;;
79399;SDS011;68856;45.586;10.264;2024-03-07T04:52:01;2.67;;;1.35;;
79399;SDS011;68856;45.586;10.264;2024-03-07T04:54:28;2.05;;;1.40;;
79399;SDS011;68856;45.586;10.264;2024-03-07T04:56:54;2.55;;;1.27;;
79399;SDS011;68856;45.586;10.264;2024-03-07T04:59:21;4.65;;;1.50;;
79399;SDS011;68856;45.586;10.264;2024-03-07T05:01:48;1.40;;;1.10;;
79399;SDS011;68856;45.586;10.264;2024-03-07T05:04:17;1.90;;;1.77;;
79399;SDS011;68856;45.586;10.264;2024-03-07T05:06:44;6.43;;;2.30;;
79399;SDS011;68856;45.586;10.264;2024-03-07T05:09:13;3.22;;;2.17;;
79399;SDS011;68856;45.586;10.264;2024-03-07T05:11:48;2.33;;;2.10;;
79399;SDS011;68856;45.586;10.264;2024-03-07T05:14:15;4.50;;;2.40;;
79399;SDS011;68856;45.586;10.264;2024-03-07T05:16:41;3.80;;;2.50;;
79399;SDS011;68856;45.586;10.264;2024-03-07T05:19:08;5.45;;;2.90;;
79399;SDS011;68856;45.586;10.264;2024-03-07T05:21:34;3.25;;;2.50;;
79399;SDS011;68856;45.586;10.264;2024-03-07T05:24:06;7.80;;;2.92;;
79399;SDS011;68856;45.586;10.264;2024-03-07T05:26:36;4.68;;;2.80;;
79399;SDS011;68856;45.586;10.264;2024-03-07T05:29:10;2.35;;;1.95;;
79399;SDS011;68856;45.586;10.264;2024-03-07T05:31:39;2.55;;;2.15;;
79399;SDS011;68856;45.586;10.264;2024-03-07T05:34:12;2.15;;;1.38;;
79399;SDS011;68856;45.586;10.264;2024-03-07T05:36:38;2.10;;;1.27;;
79399;SDS011;68856;45.586;10.264;2024-03-07T05:39:09;5.85;;;1.80;;
79399;SDS011;68856;45.586;10.264;2024-03-07T05:41:39;3.20;;;1.70;;
79399;SDS011;68856;45.586;10.264;2024-03-07T05:44:06;2.03;;;1.27;;
79399;SDS011;68856;45.586;10.264;2024-03-07T05:46:38;5.35;;;2.00;;
79399;SDS011;68856;45.586;10.264;2024-03-07T05:49:11;1.90;;;1.50;;
79399;SDS011;68856;45.586;10.264;2024-03-07T05:51:37;2.50;;;1.27;;
79399;SDS011;68856;45.586;10.264;2024-03-07T05:54:03;3.83;;;1.40;;
79399;SDS011;68856;45.586;10.264;2024-03-07T05:56:32;2.50;;;1.95;;
79399;SDS011;68856;45.586;10.264;2024-03-07T05:59:01;2.92;;;2.65;;
79399;SDS011;68856;45.586;10.264;2024-03-07T06:01:29;3.10;;;2.90;;
79399;SDS011;68856;45.586;10.264;2024-03-07T06:03:58;3.00;;;2.40;;
79399;SDS011;68856;45.586;10.264;2024-03-07T06:06:24;2.75;;;2.20;;
79399;SDS011;68856;45.586;10.264;2024-03-07T06:08:50;4.32;;;3.92;;
79399;SDS011;68856;45.586;10.264;2024-03-07T06:11:16;3.83;;;3.45;;
79399;SDS011;68856;45.586;10.264;2024-03-07T06:13:46;2.90;;;2.28;;
79399;SDS011;68856;45.586;10.264;2024-03-07T06:16:12;3.05;;;2.45;;
79399;SDS011;68856;45.586;10.264;2024-03-07T06:18:40;2.88;;;1.88;;
79399;SDS011;68856;45.586;10.264;2024-03-07T06:21:06;4.22;;;2.10;;
79399;SDS011;68856;45.586;10.264;2024-03-07T06:23:33;3.08;;;2.45;;
79399;SDS011;68856;45.586;10.264;2024-03-07T06:25:59;3.83;;;3.10;;
79399;SDS011;68856;45.586;10.264;2024-03-07T06:28:26;6.40;;;2.50;;
79399;SDS011;68856;45.586;10.264;2024-03-07T06:30:55;4.23;;;2.17;;
79399;SDS011;68856;45.586;10.264;2024-03-07T06:33:21;4.55;;;2.33;;
79399;SDS011;68856;45.586;10.264;2024-03-07T06:35:48;2.83;;;2.40;;
79399;SDS011;68856;45.586;10.264;2024-03-07T06:38:14;2.92;;;2.63;;
79399;SDS011;68856;45.586;10.264;2024-03-07T06:40:40;4.05;;;3.08;;
79399;SDS011;68856;45.586;10.264;2024-03-07T06:43:09;3.55;;;2.80;;
79399;SDS011;68856;45.586;10.264;2024-03-07T06:45:36;4.78;;;4.10;;
79399;SDS011;68856;45.586;10.264;2024-03-07T06:48:03;4.57;;;4.05;;
79399;SDS011;68856;45.586;10.264;2024-03-07T06:50:29;3.60;;;2.78;;
79399;SDS011;68856;45.586;10.264;2024-03-07T06:52:56;3.03;;;2.72;;
79399;SDS011;68856;45.586;10.264;2024-03-07T06:55:22;6.00;;;4.47;;
79399;SDS011;68856;45.586;10.264;2024-03-07T06:57:48;5.13;;;4.20;;
79399;SDS011;68856;45.586;10.264;2024-03-07T07:00:15;4.22;;;3.83;;
79399;SDS011;68856;45.586;10.264;2024-03-07T07:02:45;4.43;;;4.03;;
79399;SDS011;68856;45.586;10.264;2024-03-07T07:05:12;3.95;;;3.50;;
79399;SDS011;68856;45.586;10.264;2024-03-07T07:07:40;4.28;;;3.17;;
79399;SDS011;68856;45.586;10.264;2024-03-07T07:10:07;4.13;;;2.97;;
79399;SDS011;68856;45.586;10.264;2024-03-07T07:12:36;4.03;;;2.30;;
79399;SDS011;68856;45.586;10.264;2024-03-07T07:15:03;3.70;;;2.47;;
79399;SDS011;68856;45.586;10.264;2024-03-07T07:17:29;7.60;;;2.72;;
79399;SDS011;68856;45.586;10.264;2024-03-07T07:19:58;3.10;;;2.85;;
79399;SDS011;68856;45.586;10.264;2024-03-07T07:22:25;3.55;;;3.05;;
79399;SDS011;68856;45.586;10.264;2024-03-07T07:24:51;3.65;;;2.83;;
79399;SDS011;68856;45.586;10.264;2024-03-07T07:27:17;2.97;;;2.78;;
79399;SDS011;68856;45.586;10.264;2024-03-07T07:29:46;4.47;;;2.97;;
79399;SDS011;68856;45.586;10.264;2024-03-07T07:32:12;3.30;;;2.95;;
79399;SDS011;68856;45.586;10.264;2024-03-07T07:34:38;4.43;;;3.20;;
79399;SDS011;68856;45.586;10.264;2024-03-07T07:37:05;4.35;;;3.95;;
79399;SDS011;68856;45.586;10.264;2024-03-07T07:39:31;4.68;;;3.28;;
79399;SDS011;68856;45.586;10.264;2024-03-07T07:41:57;6.30;;;3.10;;
79399;SDS011;68856;45.586;10.264;2024-03-07T07:44:24;4.25;;;2.88;;
79399;SDS011;68856;45.586;10.264;2024-03-07T07:46:51;4.35;;;3.10;;
79399;SDS011;68856;45.586;10.264;2024-03-07T07:49:17;4.53;;;3.10;;
79399;SDS011;68856;45.586;10.264;2024-03-07T07:51:44;4.38;;;3.97;;
79399;SDS011;68856;45.586;10.264;2024-03-07T07:54:10;4.43;;;3.83;;
79399;SDS011;68856;45.586;10.264;2024-03-07T07:56:37;3.33;;;3.03;;
79399;SDS011;68856;45.586;10.264;2024-03-07T07:59:03;3.67;;;3.30;;
79399;SDS011;68856;45.586;10.264;2024-03-07T08:01:29;3.95;;;3.42;;
79399;SDS011;68856;45.586;10.264;2024-03-07T08:03:55;3.95;;;3.58;;
79399;SDS011;68856;45.586;10.264;2024-03-07T08:06:23;4.60;;;4.15;;
79399;SDS011;68856;45.586;10.264;2024-03-07T08:08:50;6.50;;;3.67;;
79399;SDS011;68856;45.586;10.264;2024-03-07T08:11:17;6.45;;;4.05;;
79399;SDS011;68856;45.586;10.264;2024-03-07T08:13:43;9.05;;;4.32;;
79399;SDS011;68856;45.586;10.264;2024-03-07T08:16:12;7.18;;;4.70;;
79399;SDS011;68856;45.586;10.264;2024-03-07T08:18:38;5.97;;;4.30;;
79399;SDS011;68856;45.586;10.264;2024-03-07T08:21:04;5.80;;;3.70;;
79399;SDS011;68856;45.586;10.264;2024-03-07T08:23:31;6.50;;;3.95;;
79399;SDS011;68856;45.586;10.264;2024-03-07T08:25:57;4.28;;;3.50;;
79399;SDS011;68856;45.586;10.264;2024-03-07T08:28:23;7.22;;;4.35;;
79399;SDS011;68856;45.586;10.264;2024-03-07T08:30:49;6.15;;;4.47;;
79399;SDS011;68856;45.586;10.264;2024-03-07T08:33:16;4.45;;;3.40;;
79399;SDS011;68856;45.586;10.264;2024-03-07T08:35:42;6.75;;;5.13;;
79399;SDS011;68856;45.586;10.264;2024-03-07T08:38:08;5.32;;;3.78;;
79399;SDS011;68856;45.586;10.264;2024-03-07T08:40:35;6.30;;;4.45;;
79399;SDS011;68856;45.586;10.264;2024-03-07T08:43:01;5.82;;;3.03;;
79399;SDS011;68856;45.586;10.264;2024-03-07T08:45:28;3.88;;;2.80;;
79399;SDS011;68856;45.586;10.264;2024-03-07T08:47:58;3.20;;;2.90;;
79399;SDS011;68856;45.586;10.264;2024-03-07T08:50:25;4.00;;;3.05;;
79399;SDS011;68856;45.586;10.264;2024-03-07T08:52:51;2.97;;;2.30;;
79399;SDS011;68856;45.586;10.264;2024-03-07T08:55:22;3.75;;;2.20;;
79399;SDS011;68856;45.586;10.264;2024-03-07T08:57:48;3.47;;;2.28;;
79399;SDS011;68856;45.586;10.264;2024-03-07T09:00:15;5.03;;;2.72;;
79399;SDS011;68856;45.586;10.264;2024-03-07T09:02:55;3.97;;;2.40;;
79399;SDS011;68856;45.586;10.264;2024-03-07T09:05:25;4.80;;;2.70;;
79399;SDS011;68856;45.586;10.264;2024-03-07T09:07:52;2.65;;;2.45;;
79399;SDS011;68856;45.586;10.264;2024-03-07T09:10:18;2.33;;;2.13;;
79399;SDS011;68856;45.586;10.264;2024-03-07T09:12:45;4.55;;;1.92;;
79399;SDS011;68856;45.586;10.264;2024-03-07T09:15:13;2.28;;;1.60;;
79399;SDS011;68856;45.586;10.264;2024-03-07T09:17:41;2.58;;;1.85;;
79399;SDS011;68856;45.586;10.264;2024-03-07T09:20:07;3.58;;;1.70;;
79399;SDS011;68856;45.586;10.264;2024-03-07T09:22:39;3.28;;;2.30;;
79399;SDS011;68856;45.586;10.264;2024-03-07T09:25:05;2.15;;;1.95;;
79399;SDS011;68856;45.586;10.264;2024-03-07T09:27:31;1.95;;;1.85;;
79399;SDS011;68856;45.586;10.264;2024-03-07T09:29:58;2.20;;;1.73;;
79399;SDS011;68856;45.586;10.264;2024-03-07T09:32:24;3.67;;;1.80;;
79399;SDS011;68856;45.586;10.264;2024-03-07T09:34:50;4.70;;;2.53;;
79399;SDS011;68856;45.586;10.264;2024-03-07T09:37:16;2.70;;;2.25;;
79399;SDS011;68856;45.586;10.264;2024-03-07T09:39:42;5.18;;;2.45;;
79399;SDS011;68856;45.586;10.264;2024-03-07T09:42:09;3.00;;;2.00;;
79399;SDS011;68856;45.586;10.264;2024-03-07T09:44:35;5.70;;;2.08;;
79399;SDS011;68856;45.586;10.264;2024-03-07T09:47:02;2.97;;;1.90;;
79399;SDS011;68856;45.586;10.264;2024-03-07T09:49:30;4.07;;;2.28;;
79399;SDS011;68856;45.586;10.264;2024-03-07T09:51:57;4.10;;;2.10;;
79399;SDS011;68856;45.586;10.264;2024-03-07T09:54:25;4.00;;;1.92;;
79399;SDS011;68856;45.586;10.264;2024-03-07T09:56:53;4.13;;;2.50;;
79399;SDS011;68856;45.586;10.264;2024-03-07T09:59:19;4.93;;;3.08;;
79399;SDS011;68856;45.586;10.264;2024-03-07T10:01:46;6.32;;;3.58;;
79399;SDS011;68856;45.586;10.264;2024-03-07T10:04:13;7.78;;;3.60;;
79399;SDS011;68856;45.586;10.264;2024-03-07T10:06:42;6.03;;;4.28;;
79399;SDS011;68856;45.586;10.264;2024-03-07T10:09:10;5.90;;;4.30;;
79399;SDS011;68856;45.586;10.264;2024-03-07T10:11:40;8.93;;;4.38;;
79399;SDS011;68856;45.586;10.264;2024-03-07T10:14:06;6.28;;;4.10;;
79399;SDS011;68856;45.586;10.264;2024-03-07T10:16:33;7.18;;;4.35;;
79399;SDS011;68856;45.586;10.264;2024-03-07T10:18:59;5.35;;;3.60;;
79399;SDS011;68856;45.586;10.264;2024-03-07T10:21:29;5.33;;;3.80;;
79399;SDS011;68856;45.586;10.264;2024-03-07T10:24:07;4.40;;;3.40;;
79399;SDS011;68856;45.586;10.264;2024-03-07T10:26:34;4.65;;;4.07;;
79399;SDS011;68856;45.586;10.264;2024-03-07T10:29:02;7.45;;;4.50;;
79399;SDS011;68856;45.586;10.264;2024-03-07T10:31:29;5.90;;;3.50;;
79399;SDS011;68856;45.586;10.264;2024-03-07T10:34:01;4.78;;;3.80;;
79399;SDS011;68856;45.586;10.264;2024-03-07T10:36:28;4.65;;;3.58;;
79399;SDS011;68856;45.586;10.264;2024-03-07T10:38:57;5.70;;;3.75;;
79399;SDS011;68856;45.586;10.264;2024-03-07T10:41:39;6.60;;;4.45;;
79399;SDS011;68856;45.586;10.264;2024-03-07T10:44:07;4.78;;;3.58;;
79399;SDS011;68856;45.586;10.264;2024-03-07T10:46:35;4.50;;;3.88;;
79399;SDS011;68856;45.586;10.264;2024-03-07T10:49:01;6.40;;;3.90;;
79399;SDS011;68856;45.586;10.264;2024-03-07T10:51:33;6.22;;;4.30;;
79399;SDS011;68856;45.586;10.264;2024-03-07T10:54:21;7.22;;;3.92;;
79399;SDS011;68856;45.586;10.264;2024-03-07T10:56:56;5.70;;;4.20;;
79399;SDS011;68856;45.586;10.264;2024-03-07T10:59:30;9.05;;;4.40;;
79399;SDS011;68856;45.586;10.264;2024-03-07T11:04:54;6.28;;;3.83;;
79399;SDS011;68856;45.586;10.264;2024-03-07T11:07:22;6.28;;;3.90;;
79399;SDS011;68856;45.586;10.264;2024-03-07T11:09:51;7.40;;;4.55;;
79399;SDS011;68856;45.586;10.264;2024-03-07T11:12:23;6.65;;;4.57;;
79399;SDS011;68856;45.586;10.264;2024-03-07T11:14:50;5.53;;;3.70;;
79399;SDS011;68856;45.586;10.264;2024-03-07T11:17:17;5.15;;;3.90;;
79399;SDS011;68856;45.586;10.264;2024-03-07T11:19:44;7.00;;;4.18;;
79399;SDS011;68856;45.586;10.264;2024-03-07T11:22:25;5.93;;;4.10;;
79399;SDS011;68856;45.586;10.264;2024-03-07T11:25:03;6.38;;;4.10;;
79399;SDS011;68856;45.586;10.264;2024-03-07T11:27:32;5.90;;;4.20;;
79399;SDS011;68856;45.586;10.264;2024-03-07T11:30:09;5.60;;;3.53;;
79399;SDS011;68856;45.586;10.264;2024-03-07T11:32:37;4.65;;;3.42;;
79399;SDS011;68856;45.586;10.264;2024-03-07T11:35:13;4.88;;;3.10;;
79399;SDS011;68856;45.586;10.264;2024-03-07T11:37:40;9.27;;;3.85;;
79399;SDS011;68856;45.586;10.264;2024-03-07T11:40:13;3.95;;;3.10;;
79399;SDS011;68856;45.586;10.264;2024-03-07T11:42:46;4.82;;;3.97;;
79399;SDS011;68856;45.586;10.264;2024-03-07T11:45:13;3.83;;;3.40;;
79399;SDS011;68856;45.586;10.264;2024-03-07T11:47:54;6.40;;;3.55;;
79399;SDS011;68856;45.586;10.264;2024-03-07T11:50:34;4.47;;;3.42;;
79399;SDS011;68856;45.586;10.264;2024-03-07T11:53:01;4.53;;;3.72;;
79399;SDS011;68856;45.586;10.264;2024-03-07T11:55:28;5.40;;;3.60;;
79399;SDS011;68856;45.586;10.264;2024-03-07T11:57:54;4.88;;;4.45;;
79399;SDS011;68856;45.586;10.264;2024-03-07T12:00:21;6.03;;;3.85;;
79399;SDS011;68856;45.586;10.264;2024-03-07T12:02:49;6.35;;;4.10;;
79399;SDS011;68856;45.586;10.264;2024-03-07T12:05:15;5.65;;;3.90;;
79399;SDS011;68856;45.586;10.264;2024-03-07T12:07:42;4.55;;;3.58;;
79399;SDS011;68856;45.586;10.264;2024-03-07T12:10:08;4.32;;;3.92;;
79399;SDS011;68856;45.586;10.264;2024-03-07T12:12:35;5.35;;;3.88;;
79399;SDS011;68856;45.586;10.264;2024-03-07T12:15:07;6.63;;;3.70;;
79399;SDS011;68856;45.586;10.264;2024-03-07T12:17:46;6.18;;;4.47;;
79399;SDS011;68856;45.586;10.264;2024-03-07T12:20:18;6.22;;;4.38;;
79399;SDS011;68856;45.586;10.264;2024-03-07T12:22:54;6.30;;;5.05;;
79399;SDS011;68856;45.586;10.264;2024-03-07T12:25:21;8.05;;;5.78;;
79399;SDS011;68856;45.586;10.264;2024-03-07T12:27:59;7.28;;;5.35;;
79399;SDS011;68856;45.586;10.264;2024-03-07T12:30:49;6.45;;;5.22;;
79399;SDS011;68856;45.586;10.264;2024-03-07T12:33:21;7.50;;;5.10;;
79399;SDS011;68856;45.586;10.264;2024-03-07T12:35:50;6.07;;;4.53;;
79399;SDS011;68856;45.586;10.264;2024-03-07T12:38:18;7.07;;;5.90;;
79399;SDS011;68856;45.586;10.264;2024-03-07T12:40:44;9.55;;;5.68;;
79399;SDS011;68856;45.586;10.264;2024-03-07T12:43:16;6.60;;;5.50;;
79399;SDS011;68856;45.586;10.264;2024-03-07T12:45:49;9.67;;;6.60;;
79399;SDS011;68856;45.586;10.264;2024-03-07T12:48:18;7.13;;;5.22;;
79399;SDS011;68856;45.586;10.264;2024-03-07T12:50:46;7.68;;;6.60;;
79399;SDS011;68856;45.586;10.264;2024-03-07T12:53:18;9.27;;;6.90;;
79399;SDS011;68856;45.586;10.264;2024-03-07T12:55:44;9.10;;;6.50;;
79399;SDS011;68856;45.586;10.264;2024-03-07T12:58:11;8.82;;;6.63;;
79399;SDS011;68856;45.586;10.264;2024-03-07T13:00:38;7.57;;;5.70;;
79399;SDS011;68856;45.586;10.264;2024-03-07T13:03:06;7.35;;;5.20;;
79399;SDS011;68856;45.586;10.264;2024-03-07T13:05:33;6.85;;;5.55;;
79399;SDS011;68856;45.586;10.264;2024-03-07T13:07:59;6.60;;;4.78;;
79399;SDS011;68856;45.586;10.264;2024-03-07T13:10:26;4.95;;;4.22;;
79399;SDS011;68856;45.586;10.264;2024-03-07T13:12:52;6.30;;;4.45;;
79399;SDS011;68856;45.586;10.264;2024-03-07T13:15:18;6.97;;;4.63;;
79399;SDS011;68856;45.586;10.264;2024-03-07T13:17:47;5.97;;;4.35;;
79399;SDS011;68856;45.586;10.264;2024-03-07T13:20:17;5.70;;;4.00;;
79399;SDS011;68856;45.586;10.264;2024-03-07T13:22:47;5.20;;;4.35;;
79399;SDS011;68856;45.586;10.264;2024-03-07T13:25:14;5.95;;;4.20;;
79399;SDS011;68856;45.586;10.264;2024-03-07T13:27:50;6.00;;;4.25;;
79399;SDS011;68856;45.586;10.264;2024-03-07T13:30:17;6.10;;;4.13;;
79399;SDS011;68856;45.586;10.264;2024-03-07T13:32:49;4.53;;;3.95;;
79399;SDS011;68856;45.586;10.264;2024-03-07T13:35:16;6.95;;;4.20;;
79399;SDS011;68856;45.586;10.264;2024-03-07T13:37:44;5.50;;;4.43;;
79399;SDS011;68856;45.586;10.264;2024-03-07T13:40:12;4.68;;;4.05;;
79399;SDS011;68856;45.586;10.264;2024-03-07T13:45:29;5.18;;;3.63;;
79399;SDS011;68856;45.586;10.264;2024-03-07T13:47:57;4.57;;;3.78;;
79399;SDS011;68856;45.586;10.264;2024-03-07T13:50:27;5.13;;;4.03;;
79399;SDS011;68856;45.586;10.264;2024-03-07T13:52:54;3.72;;;3.42;;
79399;SDS011;68856;45.586;10.264;2024-03-07T14:06:25;4.45;;;3.75;;
79399;SDS011;68856;45.586;10.264;2024-03-07T14:27:53;8.27;;;4.57;;
79399;SDS011;68856;45.586;10.264;2024-03-07T14:33:08;5.80;;;4.35;;
79399;SDS011;68856;45.586;10.264;2024-03-07T14:38:06;6.57;;;3.95;;
79399;SDS011;68856;45.586;10.264;2024-03-07T14:40:48;4.88;;;4.38;;
79399;SDS011;68856;45.586;10.264;2024-03-07T14:43:15;6.53;;;4.82;;
79399;SDS011;68856;45.586;10.264;2024-03-07T14:45:42;8.13;;;4.32;;
79399;SDS011;68856;45.586;10.264;2024-03-07T14:48:09;5.57;;;4.05;;
79399;SDS011;68856;45.586;10.264;2024-03-07T14:50:37;5.93;;;4.38;;
79399;SDS011;68856;45.586;10.264;2024-03-07T14:53:05;4.45;;;3.72;;
79399;SDS011;68856;45.586;10.264;2024-03-07T14:55:31;5.10;;;4.28;;
79399;SDS011;68856;45.586;10.264;2024-03-07T14:57:58;4.82;;;3.72;;
79399;SDS011;68856;45.586;10.264;2024-03-07T15:00:25;4.22;;;3.45;;
79399;SDS011;68856;45.586;10.264;2024-03-07T15:02:54;4.20;;;3.03;;
79399;SDS011;68856;45.586;10.264;2024-03-07T15:05:22;5.75;;;3.47;;
79399;SDS011;68856;45.586;10.264;2024-03-07T15:07:49;3.95;;;3.30;;
79399;SDS011;68856;45.586;10.264;2024-03-07T15:10:26;5.18;;;4.03;;
79399;SDS011;68856;45.586;10.264;2024-03-07T15:12:53;3.78;;;3.33;;
79399;SDS011;68856;45.586;10.264;2024-03-07T15:15:19;6.85;;;4.25;;
79399;SDS011;68856;45.586;10.264;2024-03-07T15:17:49;4.30;;;3.60;;